sensor_id;sensor_type;location;lat;lon;timestamp;pressure;altitude;pressure_sealevel;temperature;humidity
76216;BME280;65010;50.190;18.930;2023-04-03T00:01:06;98718.63;;;4.93;56.89
76216;BME280;65010;50.190;18.930;2023-04-03T00:04:13;98717.25;;;4.98;57.23
76216;BME280;65010;50.190;18.930;2023-04-03T00:07:19;98713.13;;;4.96;56.18
76216;BME280;65010;50.190;18.930;2023-04-03T00:10:31;98718.91;;;4.99;56.41
76216;BME280;65010;50.190;18.930;2023-04-03T00:13:39;98727.19;;;4.83;56.71
76216;BME280;65010;50.190;18.930;2023-04-03T00:16:46;98707.56;;;4.79;56.59
76216;BME280;65010;50.190;18.930;2023-04-03T00:19:52;98720.78;;;4.87;56.57
76216;BME280;65010;50.190;18.930;2023-04-03T00:22:59;98728.16;;;4.82;56.27
76216;BME280;65010;50.190;18.930;2023-04-03T00:26:09;98730.19;;;4.79;56.62
76216;BME280;65010;50.190;18.930;2023-04-03T00:29:16;98726.50;;;4.81;56.87
76216;BME280;65010;50.190;18.930;2023-04-03T00:32:22;98703.44;;;4.77;56.43
76216;BME280;65010;50.190;18.930;2023-04-03T00:35:29;98720.66;;;4.89;56.38
76216;BME280;65010;50.190;18.930;2023-04-03T00:38:35;98727.66;;;4.88;56.72
76216;BME280;65010;50.190;18.930;2023-04-03T00:41:44;98724.75;;;4.92;56.56
76216;BME280;65010;50.190;18.930;2023-04-03T00:48:35;98729.47;;;4.98;55.87
76216;BME280;65010;50.190;18.930;2023-04-03T00:51:45;98721.22;;;4.93;56.52
76216;BME280;65010;50.190;18.930;2023-04-03T00:54:58;98725.59;;;4.92;56.28
76216;BME280;65010;50.190;18.930;2023-04-03T00:58:11;98722.28;;;4.90;56.34
76216;BME280;65010;50.190;18.930;2023-04-03T01:01:23;98718.75;;;4.91;56.83
76216;BME280;65010;50.190;18.930;2023-04-03T01:04:34;98721.53;;;4.99;55.97
76216;BME280;65010;50.190;18.930;2023-04-03T01:07:43;98726.63;;;5.01;57.10
76216;BME280;65010;50.190;18.930;2023-04-03T01:10:51;98731.56;;;5.04;56.44
76216;BME280;65010;50.190;18.930;2023-04-03T01:14:01;98735.81;;;5.05;56.55
76216;BME280;65010;50.190;18.930;2023-04-03T01:17:27;98735.50;;;4.98;56.38
76216;BME280;65010;50.190;18.930;2023-04-03T01:24:33;98728.25;;;5.02;56.92
76216;BME280;65010;50.190;18.930;2023-04-03T01:27:44;98740.69;;;4.98;56.23
76216;BME280;65010;50.190;18.930;2023-04-03T01:30:59;98736.56;;;4.96;55.88
76216;BME280;65010;50.190;18.930;2023-04-03T01:34:17;98732.97;;;4.87;55.84
76216;BME280;65010;50.190;18.930;2023-04-03T01:37:25;98748.59;;;4.87;55.95
76216;BME280;65010;50.190;18.930;2023-04-03T01:40:32;98742.22;;;4.80;56.55
76216;BME280;65010;50.190;18.930;2023-04-03T01:43:39;98743.91;;;4.81;56.05
76216;BME280;65010;50.190;18.930;2023-04-03T01:46:45;98744.72;;;4.81;56.16
76216;BME280;65010;50.190;18.930;2023-04-03T01:49:54;98744.72;;;4.81;55.59
76216;BME280;65010;50.190;18.930;2023-04-03T01:53:01;98745.69;;;4.80;55.90
76216;BME280;65010;50.190;18.930;2023-04-03T01:56:08;98752.53;;;4.81;55.90
76216;BME280;65010;50.190;18.930;2023-04-03T01:59:15;98748.28;;;4.80;55.91
76216;BME280;65010;50.190;18.930;2023-04-03T02:02:21;98749.09;;;4.81;56.02
76216;BME280;65010;50.190;18.930;2023-04-03T02:05:31;98764.63;;;4.82;55.58
76216;BME280;65010;50.190;18.930;2023-04-03T02:08:38;98761.03;;;4.83;55.50
76216;BME280;65010;50.190;18.930;2023-04-03T02:11:45;98770.31;;;4.76;54.65
76216;BME280;65010;50.190;18.930;2023-04-03T02:14:50;98765.59;;;4.70;55.06
76216;BME280;65010;50.190;18.930;2023-04-03T02:17:57;98769.66;;;4.63;55.31
76216;BME280;65010;50.190;18.930;2023-04-03T02:21:11;98768.38;;;4.57;54.59
76216;BME280;65010;50.190;18.930;2023-04-03T02:24:18;98773.00;;;4.54;55.15
76216;BME280;65010;50.190;18.930;2023-04-03T02:27:24;98777.28;;;4.55;55.57
76216;BME280;65010;50.190;18.930;2023-04-03T02:30:31;98779.31;;;4.51;55.44
76216;BME280;65010;50.190;18.930;2023-04-03T02:33:39;98776.31;;;4.56;55.22
76216;BME280;65010;50.190;18.930;2023-04-03T02:36:51;98775.50;;;4.55;54.81
76216;BME280;65010;50.190;18.930;2023-04-03T02:39:58;98770.91;;;4.47;55.14
76216;BME280;65010;50.190;18.930;2023-04-03T02:43:05;98772.31;;;4.52;55.53
76216;BME280;65010;50.190;18.930;2023-04-03T02:46:12;98773.59;;;4.57;55.05
76216;BME280;65010;50.190;18.930;2023-04-03T02:49:20;98771.69;;;4.59;55.10
76216;BME280;65010;50.190;18.930;2023-04-03T02:52:28;98775.97;;;4.60;55.20
76216;BME280;65010;50.190;18.930;2023-04-03T02:55:35;98765.66;;;4.59;54.33
76216;BME280;65010;50.190;18.930;2023-04-03T02:58:42;98765.22;;;4.54;55.07
76216;BME280;65010;50.190;18.930;2023-04-03T03:01:51;98773.34;;;4.60;54.98
76216;BME280;65010;50.190;18.930;2023-04-03T03:04:58;98775.13;;;4.60;55.36
76216;BME280;65010;50.190;18.930;2023-04-03T03:08:07;98777.09;;;4.67;55.42
76216;BME280;65010;50.190;18.930;2023-04-03T03:11:13;98776.97;;;4.69;54.83
76216;BME280;65010;50.190;18.930;2023-04-03T03:14:20;98777.56;;;4.73;54.89
76216;BME280;65010;50.190;18.930;2023-04-03T03:17:26;98775.81;;;4.62;54.05
76216;BME280;65010;50.190;18.930;2023-04-03T03:20:33;98779.50;;;4.59;54.19
76216;BME280;65010;50.190;18.930;2023-04-03T03:23:42;98788.91;;;4.50;53.30
76216;BME280;65010;50.190;18.930;2023-04-03T03:26:49;98787.78;;;4.32;53.54
76216;BME280;65010;50.190;18.930;2023-04-03T03:29:55;98792.28;;;4.30;54.07
76216;BME280;65010;50.190;18.930;2023-04-03T03:33:02;98800.19;;;4.28;53.83
76216;BME280;65010;50.190;18.930;2023-04-03T03:36:08;98800.69;;;4.22;53.22
76216;BME280;65010;50.190;18.930;2023-04-03T03:39:18;98805.06;;;4.22;53.60
76216;BME280;65010;50.190;18.930;2023-04-03T03:42:24;98797.72;;;4.27;53.21
76216;BME280;65010;50.190;18.930;2023-04-03T03:45:31;98807.78;;;4.20;53.09
76216;BME280;65010;50.190;18.930;2023-04-03T03:48:37;98807.31;;;4.15;53.13
76216;BME280;65010;50.190;18.930;2023-04-03T03:51:44;98809.31;;;4.12;52.48
76216;BME280;65010;50.190;18.930;2023-04-03T03:54:52;98806.50;;;4.03;53.44
76216;BME280;65010;50.190;18.930;2023-04-03T03:57:59;98801.94;;;3.96;52.10
76216;BME280;65010;50.190;18.930;2023-04-03T04:01:07;98808.19;;;3.93;53.39
76216;BME280;65010;50.190;18.930;2023-04-03T04:04:21;98809.25;;;3.90;53.42
76216;BME280;65010;50.190;18.930;2023-04-03T04:07:28;98809.84;;;3.94;53.54
76216;BME280;65010;50.190;18.930;2023-04-03T04:10:39;98810.19;;;3.89;53.32
76216;BME280;65010;50.190;18.930;2023-04-03T04:13:47;98815.97;;;3.82;52.90
76216;BME280;65010;50.190;18.930;2023-04-03T04:16:57;98819.38;;;3.71;53.09
76216;BME280;65010;50.190;18.930;2023-04-03T04:20:06;98819.50;;;3.58;52.71
76216;BME280;65010;50.190;18.930;2023-04-03T04:23:15;98821.84;;;3.39;53.32
76216;BME280;65010;50.190;18.930;2023-04-03T04:26:26;98828.59;;;3.30;53.57
76216;BME280;65010;50.190;18.930;2023-04-03T04:29:33;98828.69;;;3.28;53.38
76216;BME280;65010;50.190;18.930;2023-04-03T04:32:41;98829.88;;;3.24;53.20
76216;BME280;65010;50.190;18.930;2023-04-03T04:35:49;98827.97;;;3.15;53.47
76216;BME280;65010;50.190;18.930;2023-04-03T04:38:56;98838.06;;;3.07;53.76
76216;BME280;65010;50.190;18.930;2023-04-03T04:42:06;98845.28;;;3.03;54.38
76216;BME280;65010;50.190;18.930;2023-04-03T04:45:19;98845.75;;;2.97;54.03
76216;BME280;65010;50.190;18.930;2023-04-03T04:48:26;98845.84;;;2.96;54.20
76216;BME280;65010;50.190;18.930;2023-04-03T04:51:34;98845.25;;;2.92;53.52
76216;BME280;65010;50.190;18.930;2023-04-03T04:54:56;98860.00;;;2.92;53.79
76216;BME280;65010;50.190;18.930;2023-04-03T04:58:05;98859.66;;;2.96;54.12
76216;BME280;65010;50.190;18.930;2023-04-03T05:01:12;98862.75;;;3.01;53.69
76216;BME280;65010;50.190;18.930;2023-04-03T05:04:26;98869.13;;;2.97;53.87
76216;BME280;65010;50.190;18.930;2023-04-03T05:07:40;98860.53;;;3.08;55.16
76216;BME280;65010;50.190;18.930;2023-04-03T05:10:47;98869.94;;;3.09;54.44
76216;BME280;65010;50.190;18.930;2023-04-03T05:13:59;98884.97;;;3.05;53.16
76216;BME280;65010;50.190;18.930;2023-04-03T05:17:09;98875.13;;;2.98;53.18
76216;BME280;65010;50.190;18.930;2023-04-03T05:20:20;98877.47;;;3.01;53.58
76216;BME280;65010;50.190;18.930;2023-04-03T05:23:26;98885.16;;;3.02;52.85
76216;BME280;65010;50.190;18.930;2023-04-03T05:26:36;98885.72;;;2.95;52.75
76216;BME280;65010;50.190;18.930;2023-04-03T05:29:45;98884.44;;;2.89;52.99
76216;BME280;65010;50.190;18.930;2023-04-03T05:32:56;98876.22;;;2.82;52.83
76216;BME280;65010;50.190;18.930;2023-04-03T05:36:19;98884.03;;;2.82;53.08
76216;BME280;65010;50.190;18.930;2023-04-03T05:39:31;98889.94;;;2.84;53.15
76216;BME280;65010;50.190;18.930;2023-04-03T05:42:39;98890.03;;;2.83;53.06
76216;BME280;65010;50.190;18.930;2023-04-03T05:45:50;98883.03;;;2.72;52.57
76216;BME280;65010;50.190;18.930;2023-04-03T05:48:59;98893.53;;;2.70;53.38
76216;BME280;65010;50.190;18.930;2023-04-03T05:52:19;98892.88;;;2.56;53.28
76216;BME280;65010;50.190;18.930;2023-04-03T05:55:28;98901.94;;;2.37;53.50
76216;BME280;65010;50.190;18.930;2023-04-03T05:58:35;98904.69;;;2.23;54.19
76216;BME280;65010;50.190;18.930;2023-04-03T06:01:44;98910.88;;;2.33;54.65
76216;BME280;65010;50.190;18.930;2023-04-03T06:04:53;98909.31;;;2.43;54.45
76216;BME280;65010;50.190;18.930;2023-04-03T06:07:59;98918.63;;;2.46;53.93
76216;BME280;65010;50.190;18.930;2023-04-03T06:11:06;98918.44;;;2.49;52.94
76216;BME280;65010;50.190;18.930;2023-04-03T06:14:13;98917.19;;;2.42;53.53
76216;BME280;65010;50.190;18.930;2023-04-03T06:17:23;98924.25;;;2.40;53.76
76216;BME280;65010;50.190;18.930;2023-04-03T06:20:29;98933.47;;;2.44;53.77
76216;BME280;65010;50.190;18.930;2023-04-03T06:23:36;98933.38;;;2.45;53.12
76216;BME280;65010;50.190;18.930;2023-04-03T06:26:43;98933.81;;;2.39;53.20
76216;BME280;65010;50.190;18.930;2023-04-03T06:29:50;98930.69;;;2.47;53.06
76216;BME280;65010;50.190;18.930;2023-04-03T06:32:58;98931.25;;;2.63;53.46
76216;BME280;65010;50.190;18.930;2023-04-03T06:36:06;98939.13;;;2.62;52.85
76216;BME280;65010;50.190;18.930;2023-04-03T06:39:17;98935.47;;;2.64;52.23
76216;BME280;65010;50.190;18.930;2023-04-03T06:42:26;98933.41;;;2.69;52.47
76216;BME280;65010;50.190;18.930;2023-04-03T06:45:42;98938.19;;;2.87;52.45
76216;BME280;65010;50.190;18.930;2023-04-03T06:48:52;98940.75;;;3.00;52.12
76216;BME280;65010;50.190;18.930;2023-04-03T06:51:59;98953.56;;;3.14;52.58
76216;BME280;65010;50.190;18.930;2023-04-03T06:55:06;98956.53;;;3.21;51.11
76216;BME280;65010;50.190;18.930;2023-04-03T06:58:13;98949.69;;;3.20;50.96
76216;BME280;65010;50.190;18.930;2023-04-03T07:01:24;98958.94;;;3.24;51.42
76216;BME280;65010;50.190;18.930;2023-04-03T07:04:34;98960.19;;;3.18;50.40
76216;BME280;65010;50.190;18.930;2023-04-03T07:07:41;98962.91;;;3.17;50.46
76216;BME280;65010;50.190;18.930;2023-04-03T07:10:47;98965.75;;;3.14;50.34
76216;BME280;65010;50.190;18.930;2023-04-03T07:13:53;98968.44;;;3.12;50.33
76216;BME280;65010;50.190;18.930;2023-04-03T07:17:00;98976.41;;;2.98;50.83
76216;BME280;65010;50.190;18.930;2023-04-03T07:20:12;98980.91;;;3.07;51.41
76216;BME280;65010;50.190;18.930;2023-04-03T07:23:18;98970.13;;;3.24;51.23
76216;BME280;65010;50.190;18.930;2023-04-03T07:26:25;98984.47;;;3.30;50.07
76216;BME280;65010;50.190;18.930;2023-04-03T07:29:31;98989.38;;;3.46;49.85
76216;BME280;65010;50.190;18.930;2023-04-03T07:32:38;98984.19;;;3.57;49.83
76216;BME280;65010;50.190;18.930;2023-04-03T07:35:47;98992.81;;;3.93;48.23
76216;BME280;65010;50.190;18.930;2023-04-03T07:38:54;98989.31;;;4.17;47.38
76216;BME280;65010;50.190;18.930;2023-04-03T07:42:01;98995.13;;;4.54;46.55
76216;BME280;65010;50.190;18.930;2023-04-03T07:45:09;98998.38;;;4.90;45.27
76216;BME280;65010;50.190;18.930;2023-04-03T07:48:16;98997.69;;;5.20;44.62
76216;BME280;65010;50.190;18.930;2023-04-03T07:51:26;98995.81;;;5.55;43.83
76216;BME280;65010;50.190;18.930;2023-04-03T07:54:33;99001.34;;;5.82;42.10
76216;BME280;65010;50.190;18.930;2023-04-03T07:57:40;98993.19;;;5.97;41.89
76216;BME280;65010;50.190;18.930;2023-04-03T08:00:46;98993.19;;;5.97;42.18
76216;BME280;65010;50.190;18.930;2023-04-03T08:03:54;98996.56;;;6.08;42.03
76216;BME280;65010;50.190;18.930;2023-04-03T08:07:03;98995.84;;;6.06;41.59
76216;BME280;65010;50.190;18.930;2023-04-03T08:10:10;98988.47;;;6.33;41.86
76216;BME280;65010;50.190;18.930;2023-04-03T08:13:16;98986.50;;;6.56;39.99
76216;BME280;65010;50.190;18.930;2023-04-03T08:16:24;98995.22;;;6.76;40.07
76216;BME280;65010;50.190;18.930;2023-04-03T08:19:31;98989.50;;;6.92;38.98
76216;BME280;65010;50.190;18.930;2023-04-03T08:22:41;98986.38;;;7.37;38.13
76216;BME280;65010;50.190;18.930;2023-04-03T08:25:47;98979.66;;;7.44;36.44
76216;BME280;65010;50.190;18.930;2023-04-03T08:28:54;98993.25;;;7.28;35.39
76216;BME280;65010;50.190;18.930;2023-04-03T08:32:00;98985.00;;;7.23;36.00
76216;BME280;65010;50.190;18.930;2023-04-03T08:35:07;98992.00;;;7.13;34.72
76216;BME280;65010;50.190;18.930;2023-04-03T08:38:16;98991.56;;;6.88;34.69
76216;BME280;65010;50.190;18.930;2023-04-03T08:41:29;98994.88;;;7.00;36.24
76216;BME280;65010;50.190;18.930;2023-04-03T08:44:47;98997.25;;;7.22;35.32
76216;BME280;65010;50.190;18.930;2023-04-03T08:48:06;98997.81;;;7.36;34.39
76216;BME280;65010;50.190;18.930;2023-04-03T08:51:20;99009.25;;;7.64;32.38
76216;BME280;65010;50.190;18.930;2023-04-03T08:54:35;99000.53;;;7.63;31.72
76216;BME280;65010;50.190;18.930;2023-04-03T08:57:56;98989.94;;;7.65;31.77
76216;BME280;65010;50.190;18.930;2023-04-03T09:01:19;99002.25;;;8.12;32.37
76216;BME280;65010;50.190;18.930;2023-04-03T09:04:31;98997.69;;;8.71;31.22
76216;BME280;65010;50.190;18.930;2023-04-03T09:07:43;98985.22;;;9.00;28.57
76216;BME280;65010;50.190;18.930;2023-04-03T09:11:04;98995.19;;;9.50;28.74
76216;BME280;65010;50.190;18.930;2023-04-03T09:14:28;98990.06;;;9.85;27.97
76216;BME280;65010;50.190;18.930;2023-04-03T09:17:50;98994.63;;;10.27;27.61
76216;BME280;65010;50.190;18.930;2023-04-03T09:21:12;98990.47;;;10.93;27.27
76216;BME280;65010;50.190;18.930;2023-04-03T09:24:26;98988.78;;;11.51;24.70
76216;BME280;65010;50.190;18.930;2023-04-03T09:27:37;98985.44;;;12.15;23.75
76216;BME280;65010;50.190;18.930;2023-04-03T09:30:43;98981.09;;;12.86;24.07
76216;BME280;65010;50.190;18.930;2023-04-03T09:33:53;98985.03;;;13.67;22.18
76216;BME280;65010;50.190;18.930;2023-04-03T09:37:04;98977.72;;;14.67;22.45
76216;BME280;65010;50.190;18.930;2023-04-03T09:40:33;98967.28;;;15.38;22.48
76216;BME280;65010;50.190;18.930;2023-04-03T09:43:52;98976.53;;;15.21;21.35
76216;BME280;65010;50.190;18.930;2023-04-03T09:47:18;98980.25;;;14.90;20.64
76216;BME280;65010;50.190;18.930;2023-04-03T09:50:29;98997.06;;;14.53;22.39
76216;BME280;65010;50.190;18.930;2023-04-03T09:53:37;98999.78;;;14.30;21.00
76216;BME280;65010;50.190;18.930;2023-04-03T09:56:49;99001.09;;;13.58;20.06
76216;BME280;65010;50.190;18.930;2023-04-03T10:00:03;99009.97;;;12.79;21.20
76216;BME280;65010;50.190;18.930;2023-04-03T10:03:26;99016.19;;;12.31;22.23
76216;BME280;65010;50.190;18.930;2023-04-03T10:06:39;99024.00;;;11.99;22.55
76216;BME280;65010;50.190;18.930;2023-04-03T10:09:55;99012.97;;;11.55;24.34
76216;BME280;65010;50.190;18.930;2023-04-03T10:13:09;99019.22;;;11.54;25.50
76216;BME280;65010;50.190;18.930;2023-04-03T10:16:32;99018.91;;;11.65;24.84
76216;BME280;65010;50.190;18.930;2023-04-03T10:19:49;99004.41;;;11.69;24.92
76216;BME280;65010;50.190;18.930;2023-04-03T10:23:15;98995.06;;;12.55;25.58
76216;BME280;65010;50.190;18.930;2023-04-03T10:26:37;99017.84;;;13.19;24.24
76216;BME280;65010;50.190;18.930;2023-04-03T10:29:58;99003.78;;;13.50;23.14
76216;BME280;65010;50.190;18.930;2023-04-03T10:33:39;99015.78;;;13.06;21.65
76216;BME280;65010;50.190;18.930;2023-04-03T10:37:05;99027.19;;;12.67;22.57
76216;BME280;65010;50.190;18.930;2023-04-03T10:40:29;99031.38;;;12.20;21.76
76216;BME280;65010;50.190;18.930;2023-04-03T10:43:47;99028.28;;;11.67;22.82
76216;BME280;65010;50.190;18.930;2023-04-03T10:47:08;99020.56;;;10.99;24.08
76216;BME280;65010;50.190;18.930;2023-04-03T10:50:37;99020.56;;;10.56;25.28
76216;BME280;65010;50.190;18.930;2023-04-03T10:53:56;99003.75;;;10.15;25.51
76216;BME280;65010;50.190;18.930;2023-04-03T10:57:11;99019.72;;;9.77;25.95
76216;BME280;65010;50.190;18.930;2023-04-03T11:00:22;99009.66;;;9.91;26.24
76216;BME280;65010;50.190;18.930;2023-04-03T11:03:39;99015.97;;;10.58;26.27
76216;BME280;65010;50.190;18.930;2023-04-03T11:07:00;99016.81;;;11.18;26.72
76216;BME280;65010;50.190;18.930;2023-04-03T11:10:13;99014.13;;;12.01;26.27
76216;BME280;65010;50.190;18.930;2023-04-03T11:13:33;99002.66;;;13.21;24.80
76216;BME280;65010;50.190;18.930;2023-04-03T11:16:47;98983.34;;;14.64;23.77
76216;BME280;65010;50.190;18.930;2023-04-03T11:20:06;98977.75;;;15.90;21.66
76216;BME280;65010;50.190;18.930;2023-04-03T11:23:25;98983.41;;;16.78;19.81
76216;BME280;65010;50.190;18.930;2023-04-03T11:26:53;98979.91;;;16.77;18.86
76216;BME280;65010;50.190;18.930;2023-04-03T11:30:02;98952.03;;;16.18;18.37
76216;BME280;65010;50.190;18.930;2023-04-03T11:33:24;98974.63;;;16.07;18.82
76216;BME280;65010;50.190;18.930;2023-04-03T11:36:46;98965.88;;;15.79;19.01
76216;BME280;65010;50.190;18.930;2023-04-03T11:40:05;98976.44;;;15.36;19.53
76216;BME280;65010;50.190;18.930;2023-04-03T11:43:25;98975.13;;;15.46;20.22
76216;BME280;65010;50.190;18.930;2023-04-03T11:46:52;98966.66;;;15.58;19.35
76216;BME280;65010;50.190;18.930;2023-04-03T11:50:01;98970.25;;;15.93;19.63
76216;BME280;65010;50.190;18.930;2023-04-03T11:53:32;98970.78;;;16.52;19.21
76216;BME280;65010;50.190;18.930;2023-04-03T11:56:42;98961.00;;;17.07;18.18
76216;BME280;65010;50.190;18.930;2023-04-03T11:59:49;98973.16;;;17.70;17.72
76216;BME280;65010;50.190;18.930;2023-04-03T12:02:54;98963.50;;;18.15;18.82
76216;BME280;65010;50.190;18.930;2023-04-03T12:09:58;98957.13;;;19.83;15.59
76216;BME280;65010;50.190;18.930;2023-04-03T12:13:16;98952.75;;;20.33;15.00
76216;BME280;65010;50.190;18.930;2023-04-03T12:16:26;98940.38;;;20.38;15.08
76216;BME280;65010;50.190;18.930;2023-04-03T12:19:38;98934.78;;;20.21;14.96
76216;BME280;65010;50.190;18.930;2023-04-03T12:23:07;98944.97;;;20.31;15.13
76216;BME280;65010;50.190;18.930;2023-04-03T12:26:34;98939.56;;;20.38;15.72
76216;BME280;65010;50.190;18.930;2023-04-03T12:29:58;98941.47;;;19.87;15.81
76216;BME280;65010;50.190;18.930;2023-04-03T12:33:26;98936.84;;;19.25;16.23
76216;BME280;65010;50.190;18.930;2023-04-03T12:36:50;98929.84;;;19.31;17.67
76216;BME280;65010;50.190;18.930;2023-04-03T12:40:18;98934.22;;;18.87;16.60
76216;BME280;65010;50.190;18.930;2023-04-03T12:43:50;98938.47;;;18.36;16.20
76216;BME280;65010;50.190;18.930;2023-04-03T12:47:25;98921.91;;;18.34;17.42
76216;BME280;65010;50.190;18.930;2023-04-03T12:50:35;98937.31;;;18.19;16.95
76216;BME280;65010;50.190;18.930;2023-04-03T12:53:44;98944.53;;;17.85;17.28
76216;BME280;65010;50.190;18.930;2023-04-03T12:57:09;98942.13;;;16.75;17.73
76216;BME280;65010;50.190;18.930;2023-04-03T13:00:25;98943.63;;;16.08;19.18
76216;BME280;65010;50.190;18.930;2023-04-03T13:03:42;98934.19;;;16.34;19.64
76216;BME280;65010;50.190;18.930;2023-04-03T13:06:50;98935.53;;;16.64;18.41
76216;BME280;65010;50.190;18.930;2023-04-03T13:10:02;98934.00;;;16.90;18.41
76216;BME280;65010;50.190;18.930;2023-04-03T13:13:19;98937.56;;;17.24;18.83
76216;BME280;65010;50.190;18.930;2023-04-03T13:16:27;98935.69;;;17.11;18.36
76216;BME280;65010;50.190;18.930;2023-04-03T13:19:38;98946.22;;;16.36;19.02
76216;BME280;65010;50.190;18.930;2023-04-03T13:22:51;98949.56;;;15.60;19.67
76216;BME280;65010;50.190;18.930;2023-04-03T13:26:03;98945.75;;;15.20;20.75
76216;BME280;65010;50.190;18.930;2023-04-03T13:29:23;98954.81;;;15.32;20.04
76216;BME280;65010;50.190;18.930;2023-04-03T13:32:34;98942.28;;;15.41;20.49
76216;BME280;65010;50.190;18.930;2023-04-03T13:35:44;98936.69;;;16.07;19.42
76216;BME280;65010;50.190;18.930;2023-04-03T13:38:58;98939.59;;;16.60;18.41
76216;BME280;65010;50.190;18.930;2023-04-03T13:42:20;98942.03;;;17.10;17.56
76216;BME280;65010;50.190;18.930;2023-04-03T13:45:31;98939.19;;;18.05;17.82
76216;BME280;65010;50.190;18.930;2023-04-03T13:48:42;98942.47;;;18.72;15.76
76216;BME280;65010;50.190;18.930;2023-04-03T13:51:53;98938.25;;;18.96;15.62
76216;BME280;65010;50.190;18.930;2023-04-03T13:55:20;98931.31;;;18.89;16.08
76216;BME280;65010;50.190;18.930;2023-04-03T13:58:30;98911.78;;;19.01;15.89
76216;BME280;65010;50.190;18.930;2023-04-03T14:01:42;98941.50;;;18.67;16.45
76216;BME280;65010;50.190;18.930;2023-04-03T14:04:54;98934.09;;;17.90;16.60
76216;BME280;65010;50.190;18.930;2023-04-03T14:08:06;98942.84;;;17.17;16.67
76216;BME280;65010;50.190;18.930;2023-04-03T14:11:15;98938.16;;;16.58;17.11
76216;BME280;65010;50.190;18.930;2023-04-03T14:14:27;98936.91;;;16.54;18.56
76216;BME280;65010;50.190;18.930;2023-04-03T14:17:36;98945.56;;;16.27;18.48
76216;BME280;65010;50.190;18.930;2023-04-03T14:20:43;98962.97;;;15.31;18.50
76216;BME280;65010;50.190;18.930;2023-04-03T14:23:53;98958.66;;;14.57;17.54
76216;BME280;65010;50.190;18.930;2023-04-03T14:27:18;98959.53;;;13.75;19.66
76216;BME280;65010;50.190;18.930;2023-04-03T14:30:29;98961.19;;;13.30;20.84
76216;BME280;65010;50.190;18.930;2023-04-03T14:33:38;98959.66;;;12.89;20.82
76216;BME280;65010;50.190;18.930;2023-04-03T14:36:45;98952.28;;;12.76;21.84
76216;BME280;65010;50.190;18.930;2023-04-03T14:39:55;98962.78;;;12.53;20.44
76216;BME280;65010;50.190;18.930;2023-04-03T14:43:05;98972.94;;;12.17;21.21
76216;BME280;65010;50.190;18.930;2023-04-03T14:46:14;98962.91;;;11.87;22.06
76216;BME280;65010;50.190;18.930;2023-04-03T14:49:25;98960.63;;;11.76;21.60
76216;BME280;65010;50.190;18.930;2023-04-03T14:52:35;98962.66;;;12.30;22.61
76216;BME280;65010;50.190;18.930;2023-04-03T14:55:46;98952.38;;;11.96;22.18
76216;BME280;65010;50.190;18.930;2023-04-03T14:58:56;98966.91;;;11.42;21.77
76216;BME280;65010;50.190;18.930;2023-04-03T15:02:25;98969.78;;;11.06;22.92
76216;BME280;65010;50.190;18.930;2023-04-03T15:05:35;98979.34;;;10.65;23.61
76216;BME280;65010;50.190;18.930;2023-04-03T15:08:44;98979.34;;;10.65;24.15
76216;BME280;65010;50.190;18.930;2023-04-03T15:11:55;98975.00;;;10.47;23.65
76216;BME280;65010;50.190;18.930;2023-04-03T15:15:03;98969.59;;;10.49;23.44
76216;BME280;65010;50.190;18.930;2023-04-03T15:18:16;98959.13;;;10.23;23.97
76216;BME280;65010;50.190;18.930;2023-04-03T15:21:25;98985.91;;;10.26;24.60
76216;BME280;65010;50.190;18.930;2023-04-03T15:24:31;98980.25;;;9.87;25.00
76216;BME280;65010;50.190;18.930;2023-04-03T15:27:41;98984.25;;;9.73;25.42
76216;BME280;65010;50.190;18.930;2023-04-03T15:30:47;98981.13;;;9.52;24.54
76216;BME280;65010;50.190;18.930;2023-04-03T15:33:54;98986.56;;;9.22;25.16
76216;BME280;65010;50.190;18.930;2023-04-03T15:37:01;98981.22;;;8.96;25.57
76216;BME280;65010;50.190;18.930;2023-04-03T15:40:09;98985.25;;;8.73;26.90
76216;BME280;65010;50.190;18.930;2023-04-03T15:43:18;98992.47;;;8.61;26.96
76216;BME280;65010;50.190;18.930;2023-04-03T15:46:26;98994.00;;;8.54;26.83
76216;BME280;65010;50.190;18.930;2023-04-03T15:49:33;99003.19;;;8.30;27.66
76216;BME280;65010;50.190;18.930;2023-04-03T15:52:40;98990.41;;;8.17;27.50
76216;BME280;65010;50.190;18.930;2023-04-03T15:55:46;98991.09;;;8.09;28.65
76216;BME280;65010;50.190;18.930;2023-04-03T15:58:56;98994.13;;;8.24;27.70
76216;BME280;65010;50.190;18.930;2023-04-03T16:02:04;98995.63;;;8.17;26.59
76216;BME280;65010;50.190;18.930;2023-04-03T16:05:18;98997.03;;;8.12;28.09
76216;BME280;65010;50.190;18.930;2023-04-03T16:08:24;98995.78;;;8.06;27.10
76216;BME280;65010;50.190;18.930;2023-04-03T16:11:31;98994.03;;;8.06;27.80
76216;BME280;65010;50.190;18.930;2023-04-03T16:14:40;98997.78;;;7.75;27.48
76216;BME280;65010;50.190;18.930;2023-04-03T16:17:47;99003.16;;;7.73;28.30
76216;BME280;65010;50.190;18.930;2023-04-03T16:20:53;99004.53;;;7.67;28.11
76216;BME280;65010;50.190;18.930;2023-04-03T16:24:01;98995.19;;;7.65;28.99
76216;BME280;65010;50.190;18.930;2023-04-03T16:27:08;98999.16;;;7.59;29.14
76216;BME280;65010;50.190;18.930;2023-04-03T16:30:17;99010.44;;;7.60;29.18
76216;BME280;65010;50.190;18.930;2023-04-03T16:33:24;99007.44;;;7.55;28.89
76216;BME280;65010;50.190;18.930;2023-04-03T16:36:31;99009.75;;;7.58;29.31
76216;BME280;65010;50.190;18.930;2023-04-03T16:39:37;99007.56;;;7.53;28.98
76216;BME280;65010;50.190;18.930;2023-04-03T16:42:43;99004.28;;;7.22;28.94
76216;BME280;65010;50.190;18.930;2023-04-03T16:45:52;98991.69;;;6.96;29.20
76216;BME280;65010;50.190;18.930;2023-04-03T16:48:59;99011.75;;;6.86;28.97
76216;BME280;65010;50.190;18.930;2023-04-03T16:52:05;99007.72;;;6.72;29.34
76216;BME280;65010;50.190;18.930;2023-04-03T16:55:12;99014.13;;;6.58;30.04
76216;BME280;65010;50.190;18.930;2023-04-03T16:58:18;99013.84;;;6.52;29.91
76216;BME280;65010;50.190;18.930;2023-04-03T17:01:29;99019.97;;;6.41;30.52